createdAt,value
2023-02-02T00:00:01.785Z,299.77
2023-02-02T00:05:08.978Z,298.47
2023-02-02T00:10:16.178Z,298.27
2023-02-02T00:15:23.689Z,298.34
2023-02-02T00:20:30.519Z,298.68
2023-02-02T00:25:37.728Z,297.85
2023-02-02T00:30:44.945Z,297.64
2023-02-02T00:35:52.070Z,297.93
2023-02-02T00:40:59.290Z,298.48
2023-02-02T00:46:06.497Z,298.21
2023-02-02T00:51:13.633Z,298.44
2023-02-02T00:56:20.846Z,300.51
2023-02-02T01:01:28.002Z,299.96
2023-02-02T01:06:35.184Z,300.88
2023-02-02T01:11:42.597Z,300.21
2023-02-02T01:16:49.843Z,300.97
2023-02-02T01:21:56.945Z,299.15
2023-02-02T01:27:04.166Z,299.26
2023-02-02T01:32:11.302Z,299.41
2023-02-02T01:37:18.492Z,298.81
2023-02-02T01:42:25.710Z,299.55
2023-02-02T01:47:32.890Z,299.50
2023-02-02T01:52:40.141Z,299.08
2023-02-02T01:57:47.395Z,300.47
2023-02-02T02:02:54.545Z,303.47
2023-02-02T02:08:01.779Z,301.33
2023-02-02T02:13:09.017Z,301.17
2023-02-02T02:18:16.210Z,301.33
2023-02-02T02:23:23.455Z,301.71
2023-02-02T02:28:30.657Z,301.19
2023-02-02T02:33:37.847Z,299.88
2023-02-02T02:38:45.047Z,301.12
2023-02-02T02:43:52.287Z,301.00
2023-02-02T02:48:59.465Z,301.12
2023-02-02T02:54:06.662Z,301.82
2023-02-02T02:59:13.880Z,301.92
2023-02-02T03:04:21.041Z,303.33
2023-02-02T03:09:28.469Z,303.96
2023-02-02T03:14:35.832Z,305.46
2023-02-02T03:19:42.993Z,306.00
2023-02-02T03:24:50.183Z,303.73
2023-02-02T03:29:57.411Z,303.31
2023-02-02T03:35:04.548Z,305.01
2023-02-02T03:40:11.749Z,302.68
2023-02-02T03:45:18.942Z,302.49
2023-02-02T03:50:26.100Z,302.28
2023-02-02T03:55:33.281Z,301.45
2023-02-02T04:00:40.492Z,300.83
2023-02-02T04:05:47.655Z,299.80
2023-02-02T04:10:54.835Z,298.71
2023-02-02T04:16:02.148Z,297.42
2023-02-02T04:21:09.228Z,296.89
2023-02-02T04:26:16.537Z,297.36
2023-02-02T04:31:23.698Z,297.42
2023-02-02T04:36:30.858Z,297.45
2023-02-02T04:41:38.051Z,297.81
2023-02-02T04:46:45.336Z,298.37
2023-02-02T04:51:52.532Z,298.72
2023-02-02T04:56:59.687Z,298.93
2023-02-02T05:02:06.919Z,299.94
2023-02-02T05:07:14.089Z,299.90
2023-02-02T05:12:21.251Z,299.40
2023-02-02T05:17:28.466Z,299.20
2023-02-02T05:22:35.631Z,298.74
2023-02-02T05:27:42.801Z,298.19
2023-02-02T05:32:50.014Z,297.54
2023-02-02T05:37:59.233Z,299.38
2023-02-02T05:43:04.411Z,297.39
2023-02-02T05:48:11.666Z,298.66
2023-02-02T05:53:18.856Z,299.13
2023-02-02T05:58:26.043Z,298.71
2023-02-02T06:03:33.466Z,300.97
2023-02-02T06:08:40.537Z,298.94
2023-02-02T06:13:47.788Z,298.81
2023-02-02T06:18:55.194Z,298.80
2023-02-02T06:24:02.360Z,298.29
2023-02-02T06:29:09.569Z,298.22
2023-02-02T06:34:16.785Z,297.45
2023-02-02T06:39:24.011Z,295.17
2023-02-02T06:44:31.192Z,296.81
2023-02-02T06:49:38.401Z,295.56
2023-02-02T06:54:45.546Z,294.46
2023-02-02T06:59:52.770Z,293.82
2023-02-02T07:05:00.006Z,294.39
2023-02-02T07:10:07.212Z,293.95
2023-02-02T07:15:14.407Z,294.42
2023-02-02T07:20:21.625Z,293.43
2023-02-02T07:25:28.860Z,294.26
2023-02-02T07:30:36.284Z,293.24
2023-02-02T07:35:43.526Z,292.77
2023-02-02T07:40:50.720Z,292.78
2023-02-02T07:45:57.892Z,292.12
2023-02-02T07:51:05.100Z,292.02
2023-02-02T07:56:12.256Z,292.81
2023-02-02T08:01:19.441Z,291.26
2023-02-02T08:06:26.673Z,293.32
2023-02-02T08:11:33.922Z,292.05
2023-02-02T08:16:41.114Z,291.46
2023-02-02T08:21:48.337Z,291.08
2023-02-02T08:26:55.621Z,290.43
2023-02-02T08:32:02.762Z,289.70
2023-02-02T08:37:10.017Z,289.83
2023-02-02T08:42:17.245Z,289.04
2023-02-02T08:47:24.404Z,289.66
2023-02-02T08:52:31.656Z,289.35
2023-02-02T08:57:38.836Z,289.31
2023-02-02T09:02:46.088Z,288.99
2023-02-02T09:07:53.328Z,287.43
2023-02-02T09:13:00.579Z,287.20
2023-02-02T09:18:07.758Z,287.23
2023-02-02T09:23:14.971Z,286.79
2023-02-02T09:28:22.093Z,287.78
2023-02-02T09:33:29.268Z,286.68
2023-02-02T09:38:36.525Z,288.17
2023-02-02T09:43:43.643Z,287.96
2023-02-02T09:48:50.857Z,288.32
2023-02-02T09:53:58.032Z,287.67
2023-02-02T09:59:18.783Z,286.72
2023-02-02T10:04:12.804Z,285.32
2023-02-02T10:09:19.989Z,284.76
2023-02-02T10:14:27.227Z,282.67
2023-02-02T10:19:34.344Z,283.26
2023-02-02T10:24:41.598Z,281.69
2023-02-02T10:29:49.541Z,282.66
2023-02-02T10:35:10.968Z,282.45
2023-02-02T10:40:03.311Z,281.43
2023-02-02T10:45:10.356Z,282.00
2023-02-02T10:50:17.857Z,281.84
2023-02-02T10:55:24.849Z,281.67
2023-02-02T11:00:32.039Z,281.23
2023-02-02T11:05:39.312Z,279.96
2023-02-02T11:10:46.574Z,281.37
2023-02-02T11:15:53.806Z,281.01
2023-02-02T11:21:00.934Z,281.77
2023-02-02T11:26:08.169Z,283.05
2023-02-02T11:31:15.503Z,283.11
2023-02-02T11:36:22.506Z,282.71
2023-02-02T11:41:29.917Z,282.48
2023-02-02T11:46:37.117Z,283.00
2023-02-02T11:51:44.275Z,283.33
2023-02-02T11:56:51.477Z,283.69
2023-02-02T12:01:58.687Z,284.48
2023-02-02T12:07:05.835Z,284.62
2023-02-02T12:12:13.120Z,284.50
2023-02-02T12:17:20.374Z,283.95
2023-02-02T12:22:27.581Z,286.37
2023-02-02T12:27:34.794Z,286.69
2023-02-02T12:32:42.018Z,283.95
2023-02-02T12:37:49.227Z,284.19
2023-02-02T12:42:56.450Z,285.25
2023-02-02T12:48:03.609Z,285.58
2023-02-02T12:53:12.038Z,285.64
2023-02-02T12:58:18.177Z,285.15
2023-02-02T13:03:25.458Z,285.46
2023-02-02T13:08:32.637Z,284.67
2023-02-02T13:13:39.925Z,284.54
2023-02-02T13:18:47.015Z,285.18
2023-02-02T13:23:54.287Z,284.54
2023-02-02T13:29:01.495Z,285.51
2023-02-02T13:34:08.658Z,284.42
2023-02-02T13:39:15.896Z,283.13
2023-02-02T13:44:23.120Z,283.05
2023-02-02T13:49:30.315Z,282.87
2023-02-02T13:54:37.505Z,283.08
2023-02-02T13:59:44.735Z,282.95
2023-02-02T14:04:51.922Z,282.18
2023-02-02T14:09:59.164Z,281.22
2023-02-02T14:15:06.350Z,280.76
2023-02-02T14:20:13.505Z,280.60
2023-02-02T14:25:20.706Z,280.11
2023-02-02T14:30:27.921Z,278.67
2023-02-02T14:35:35.139Z,279.73
2023-02-02T14:40:42.296Z,278.61
2023-02-02T14:45:49.509Z,279.50
2023-02-02T14:50:56.648Z,278.67
2023-02-02T14:56:03.797Z,278.00
2023-02-02T15:01:11.009Z,279.00
2023-02-02T15:06:18.183Z,277.84
2023-02-02T15:11:25.380Z,277.78
2023-02-02T15:16:32.558Z,278.16
2023-02-02T15:21:39.775Z,277.72
2023-02-02T15:26:46.976Z,276.10
2023-02-02T15:31:54.180Z,276.61
2023-02-02T15:37:01.277Z,275.87
2023-02-02T15:42:08.454Z,274.96
2023-02-02T15:47:15.693Z,275.42
2023-02-02T15:52:22.837Z,274.44
2023-02-02T15:57:30.012Z,274.03
2023-02-02T16:02:37.196Z,273.91
2023-02-02T16:07:48.526Z,272.25
2023-02-02T16:12:51.573Z,272.41
2023-02-02T16:17:58.790Z,272.07
2023-02-02T16:23:05.999Z,271.88
2023-02-02T16:28:13.111Z,272.53
2023-02-02T16:33:20.340Z,271.81
2023-02-02T16:38:27.485Z,273.03
2023-02-02T16:43:34.672Z,271.57
2023-02-02T16:48:41.908Z,270.70
2023-02-02T16:53:49.033Z,271.29
2023-02-02T16:58:56.282Z,270.65
2023-02-02T17:04:03.432Z,269.40
2023-02-02T17:09:10.603Z,269.66
2023-02-02T17:14:17.744Z,269.74
2023-02-02T17:19:24.909Z,268.24
2023-02-02T17:24:32.048Z,267.77
2023-02-02T17:29:39.260Z,266.26
2023-02-02T17:34:46.499Z,266.62
2023-02-02T17:39:53.720Z,266.69
2023-02-02T17:45:00.901Z,266.29
2023-02-02T17:50:08.105Z,266.07
2023-02-02T17:55:15.275Z,264.99
2023-02-02T18:00:22.704Z,265.11
2023-02-02T18:05:29.762Z,264.84
2023-02-02T18:10:36.949Z,263.21
2023-02-02T18:15:44.216Z,261.49
2023-02-02T18:20:51.372Z,262.78
2023-02-02T18:25:58.484Z,262.60
2023-02-02T18:31:05.767Z,264.11
2023-02-02T18:36:12.888Z,264.32
2023-02-02T18:41:20.147Z,264.82
2023-02-02T18:46:27.487Z,264.44
2023-02-02T18:51:34.718Z,265.11
2023-02-02T18:56:41.877Z,265.08
2023-02-02T19:01:49.149Z,264.95
2023-02-02T19:06:56.303Z,264.16
2023-02-02T19:12:03.452Z,264.38
2023-02-02T19:17:10.624Z,264.50
2023-02-02T19:22:18.065Z,263.85
2023-02-02T19:27:25.234Z,264.09
2023-02-02T19:32:32.357Z,262.89
2023-02-02T19:37:39.604Z,262.01
2023-02-02T19:42:46.858Z,262.31
2023-02-02T19:47:54.022Z,262.14
2023-02-02T19:53:01.231Z,261.39
2023-02-02T19:58:08.404Z,260.95
2023-02-02T20:03:15.665Z,260.67
2023-02-02T20:08:22.816Z,259.80
2023-02-02T20:13:30.002Z,261.20
2023-02-02T20:18:37.207Z,260.30
2023-02-02T20:23:44.467Z,260.09
2023-02-02T20:28:51.623Z,260.65
2023-02-02T20:33:58.832Z,260.76
2023-02-02T20:39:06.144Z,259.90
2023-02-02T20:44:13.324Z,260.54
2023-02-02T20:49:20.574Z,260.02
2023-02-02T20:54:27.788Z,258.99
2023-02-02T20:59:34.951Z,257.59
2023-02-02T21:04:42.085Z,258.74
2023-02-02T21:09:49.349Z,257.64
2023-02-02T21:14:56.514Z,257.07
2023-02-02T21:20:03.682Z,257.95
2023-02-02T21:25:12.388Z,257.32
2023-02-02T21:30:19.661Z,257.77
2023-02-02T21:35:26.866Z,258.25
2023-02-02T21:40:34.083Z,258.51
2023-02-02T21:45:41.370Z,258.80
2023-02-02T21:50:48.598Z,258.35
2023-02-02T21:55:55.915Z,258.26
2023-02-02T22:01:03.079Z,256.90
2023-02-02T22:06:10.308Z,257.16
2023-02-02T22:11:17.578Z,257.17
2023-02-02T22:16:25.198Z,257.17
2023-02-02T22:21:32.290Z,257.44
2023-02-02T22:26:39.491Z,256.71
2023-02-02T22:31:46.750Z,255.69
2023-02-02T22:36:53.829Z,255.48
2023-02-02T22:42:00.981Z,255.59
2023-02-02T22:47:08.114Z,255.54
2023-02-02T22:52:15.294Z,255.22
2023-02-02T22:57:22.731Z,255.30
2023-02-02T23:02:29.872Z,256.07
2023-02-02T23:07:37.099Z,255.68
2023-02-02T23:12:44.246Z,256.09
2023-02-02T23:17:51.423Z,254.71
2023-02-02T23:22:58.596Z,253.26
2023-02-02T23:28:05.807Z,252.42
2023-02-02T23:33:12.971Z,252.42
2023-02-02T23:38:20.170Z,252.59
2023-02-02T23:43:27.427Z,252.70
2023-02-02T23:48:34.623Z,253.14
2023-02-02T23:53:41.975Z,252.53
2023-02-02T23:58:49.207Z,253.54
